sensor_id;sensor_type;location;lat;lon;timestamp;temperature;humidity
14531;DHT22;7352;50.866;4.366;2023-06-26T00:01:41;25.70;83.00
14531;DHT22;7352;50.866;4.366;2023-06-26T00:04:21;25.70;83.50
14531;DHT22;7352;50.866;4.366;2023-06-26T00:06:56;25.80;83.30
14531;DHT22;7352;50.866;4.366;2023-06-26T00:09:31;25.60;83.30
14531;DHT22;7352;50.866;4.366;2023-06-26T00:12:00;25.60;84.20
14531;DHT22;7352;50.866;4.366;2023-06-26T00:14:29;25.60;84.00
14531;DHT22;7352;50.866;4.366;2023-06-26T00:17:03;25.40;84.80
14531;DHT22;7352;50.866;4.366;2023-06-26T00:19:32;25.40;84.50
14531;DHT22;7352;50.866;4.366;2023-06-26T00:22:05;25.40;84.50
14531;DHT22;7352;50.866;4.366;2023-06-26T00:24:41;25.30;85.40
14531;DHT22;7352;50.866;4.366;2023-06-26T00:27:14;25.20;85.70
14531;DHT22;7352;50.866;4.366;2023-06-26T00:29:49;25.10;86.20
14531;DHT22;7352;50.866;4.366;2023-06-26T00:32:29;25.00;85.20
14531;DHT22;7352;50.866;4.366;2023-06-26T00:35:01;24.90;83.30
14531;DHT22;7352;50.866;4.366;2023-06-26T00:37:45;24.80;83.10
14531;DHT22;7352;50.866;4.366;2023-06-26T00:40:40;24.80;82.10
14531;DHT22;7352;50.866;4.366;2023-06-26T00:43:08;24.70;81.20
14531;DHT22;7352;50.866;4.366;2023-06-26T00:45:43;24.50;80.60
14531;DHT22;7352;50.866;4.366;2023-06-26T00:48:10;24.50;80.10
14531;DHT22;7352;50.866;4.366;2023-06-26T00:50:45;24.40;80.70
14531;DHT22;7352;50.866;4.366;2023-06-26T00:53:12;24.40;80.50
14531;DHT22;7352;50.866;4.366;2023-06-26T00:58:31;24.40;84.50
14531;DHT22;7352;50.866;4.366;2023-06-26T01:01:00;24.30;85.10
14531;DHT22;7352;50.866;4.366;2023-06-26T01:03:46;24.40;85.60
14531;DHT22;7352;50.866;4.366;2023-06-26T01:06:20;24.40;85.90
14531;DHT22;7352;50.866;4.366;2023-06-26T01:09:07;24.30;85.70
14531;DHT22;7352;50.866;4.366;2023-06-26T01:11:36;24.10;85.10
14531;DHT22;7352;50.866;4.366;2023-06-26T01:14:06;24.00;85.40
14531;DHT22;7352;50.866;4.366;2023-06-26T01:16:33;24.00;85.70
14531;DHT22;7352;50.866;4.366;2023-06-26T01:19:16;24.10;85.80
14531;DHT22;7352;50.866;4.366;2023-06-26T01:21:50;24.10;86.70
14531;DHT22;7352;50.866;4.366;2023-06-26T01:24:18;24.10;86.20
14531;DHT22;7352;50.866;4.366;2023-06-26T01:32:27;23.90;88.10
14531;DHT22;7352;50.866;4.366;2023-06-26T01:40:48;24.00;89.10
14531;DHT22;7352;50.866;4.366;2023-06-26T01:43:15;23.90;88.80
14531;DHT22;7352;50.866;4.366;2023-06-26T01:45:54;23.70;89.40
14531;DHT22;7352;50.866;4.366;2023-06-26T01:51:18;23.70;90.10
14531;DHT22;7352;50.866;4.366;2023-06-26T01:54:23;23.70;90.20
14531;DHT22;7352;50.866;4.366;2023-06-26T01:57:06;23.60;90.80
14531;DHT22;7352;50.866;4.366;2023-06-26T02:00:08;23.50;91.20
14531;DHT22;7352;50.866;4.366;2023-06-26T02:03:03;23.40;91.50
14531;DHT22;7352;50.866;4.366;2023-06-26T02:05:40;23.40;92.20
14531;DHT22;7352;50.866;4.366;2023-06-26T02:14:26;23.20;93.90
14531;DHT22;7352;50.866;4.366;2023-06-26T02:55:29;22.60;99.90
14531;DHT22;7352;50.866;4.366;2023-06-26T02:58:20;22.70;99.90
14531;DHT22;7352;50.866;4.366;2023-06-26T03:01:04;22.60;99.90
14531;DHT22;7352;50.866;4.366;2023-06-26T03:03:53;22.50;99.90
14531;DHT22;7352;50.866;4.366;2023-06-26T03:09:31;22.40;99.90
14531;DHT22;7352;50.866;4.366;2023-06-26T03:12:16;22.40;99.90
14531;DHT22;7352;50.866;4.366;2023-06-26T03:15:05;22.30;99.90
14531;DHT22;7352;50.866;4.366;2023-06-26T03:21:17;21.80;99.90
14531;DHT22;7352;50.866;4.366;2023-06-26T03:23:48;21.90;99.90
14531;DHT22;7352;50.866;4.366;2023-06-26T03:26:26;21.80;99.90
14531;DHT22;7352;50.866;4.366;2023-06-26T03:28:58;21.80;99.90
14531;DHT22;7352;50.866;4.366;2023-06-26T03:31:27;21.70;99.90
14531;DHT22;7352;50.866;4.366;2023-06-26T03:33:56;21.60;99.90
14531;DHT22;7352;50.866;4.366;2023-06-26T03:36:29;21.70;99.90
14531;DHT22;7352;50.866;4.366;2023-06-26T03:41:59;21.80;99.90
14531;DHT22;7352;50.866;4.366;2023-06-26T03:44:29;21.80;99.90
14531;DHT22;7352;50.866;4.366;2023-06-26T03:46:58;21.60;99.90
14531;DHT22;7352;50.866;4.366;2023-06-26T03:49:25;21.50;99.90
14531;DHT22;7352;50.866;4.366;2023-06-26T03:51:51;21.40;99.90
14531;DHT22;7352;50.866;4.366;2023-06-26T03:54:24;21.40;99.90
14531;DHT22;7352;50.866;4.366;2023-06-26T03:57:08;21.40;99.90
14531;DHT22;7352;50.866;4.366;2023-06-26T04:03:04;21.30;99.90
14531;DHT22;7352;50.866;4.366;2023-06-26T04:05:46;21.20;99.90
14531;DHT22;7352;50.866;4.366;2023-06-26T04:11:30;21.20;99.90
14531;DHT22;7352;50.866;4.366;2023-06-26T04:14:10;21.20;99.90
14531;DHT22;7352;50.866;4.366;2023-06-26T04:19:58;21.30;99.90
14531;DHT22;7352;50.866;4.366;2023-06-26T04:22:59;21.20;99.90
14531;DHT22;7352;50.866;4.366;2023-06-26T04:25:45;21.20;99.90
14531;DHT22;7352;50.866;4.366;2023-06-26T04:32:48;21.00;99.90
14531;DHT22;7352;50.866;4.366;2023-06-26T04:35:09;21.00;99.90
14531;DHT22;7352;50.866;4.366;2023-06-26T04:38:03;21.00;99.90
14531;DHT22;7352;50.866;4.366;2023-06-26T04:40:37;21.00;99.90
14531;DHT22;7352;50.866;4.366;2023-06-26T04:43:38;21.10;99.90
14531;DHT22;7352;50.866;4.366;2023-06-26T04:46:11;21.00;99.90
14531;DHT22;7352;50.866;4.366;2023-06-26T04:48:58;21.00;99.90
14531;DHT22;7352;50.866;4.366;2023-06-26T04:51:31;20.90;99.90
14531;DHT22;7352;50.866;4.366;2023-06-26T04:54:09;21.00;99.90
14531;DHT22;7352;50.866;4.366;2023-06-26T04:56:40;21.10;99.90
14531;DHT22;7352;50.866;4.366;2023-06-26T04:59:21;21.00;99.90
14531;DHT22;7352;50.866;4.366;2023-06-26T05:01:53;20.90;99.90
14531;DHT22;7352;50.866;4.366;2023-06-26T05:04:20;20.80;99.90
14531;DHT22;7352;50.866;4.366;2023-06-26T05:06:49;20.80;99.90
14531;DHT22;7352;50.866;4.366;2023-06-26T05:09:31;20.80;99.90
14531;DHT22;7352;50.866;4.366;2023-06-26T05:11:59;20.80;99.90
14531;DHT22;7352;50.866;4.366;2023-06-26T05:14:29;20.80;99.90
14531;DHT22;7352;50.866;4.366;2023-06-26T05:16:56;20.80;99.90
14531;DHT22;7352;50.866;4.366;2023-06-26T05:19:25;20.90;99.90
14531;DHT22;7352;50.866;4.366;2023-06-26T05:21:57;21.00;99.90
14531;DHT22;7352;50.866;4.366;2023-06-26T05:24:26;21.00;99.90
14531;DHT22;7352;50.866;4.366;2023-06-26T05:27:10;21.00;99.90
14531;DHT22;7352;50.866;4.366;2023-06-26T05:29:47;20.90;99.90
14531;DHT22;7352;50.866;4.366;2023-06-26T05:32:20;20.80;99.90
14531;DHT22;7352;50.866;4.366;2023-06-26T05:35:11;20.90;99.90
14531;DHT22;7352;50.866;4.366;2023-06-26T05:38:09;21.00;99.90
14531;DHT22;7352;50.866;4.366;2023-06-26T05:41:00;21.10;99.90
14531;DHT22;7352;50.866;4.366;2023-06-26T05:43:31;21.10;99.90
14531;DHT22;7352;50.866;4.366;2023-06-26T05:49:18;21.20;99.90
14531;DHT22;7352;50.866;4.366;2023-06-26T05:51:47;21.20;99.90
14531;DHT22;7352;50.866;4.366;2023-06-26T05:57:05;21.10;99.90
14531;DHT22;7352;50.866;4.366;2023-06-26T05:59:47;21.10;99.90
14531;DHT22;7352;50.866;4.366;2023-06-26T06:02:14;21.20;99.90
14531;DHT22;7352;50.866;4.366;2023-06-26T06:04:51;21.10;99.90
14531;DHT22;7352;50.866;4.366;2023-06-26T06:07:46;21.00;99.90
14531;DHT22;7352;50.866;4.366;2023-06-26T06:10:23;20.90;99.90
14531;DHT22;7352;50.866;4.366;2023-06-26T06:16:12;21.00;99.90
14531;DHT22;7352;50.866;4.366;2023-06-26T06:18:54;21.10;99.90
14531;DHT22;7352;50.866;4.366;2023-06-26T06:21:27;21.10;99.90
14531;DHT22;7352;50.866;4.366;2023-06-26T06:24:08;21.20;99.90
14531;DHT22;7352;50.866;4.366;2023-06-26T06:26:40;21.10;99.90
14531;DHT22;7352;50.866;4.366;2023-06-26T06:29:21;21.10;99.90
14531;DHT22;7352;50.866;4.366;2023-06-26T06:38:01;21.20;99.90
14531;DHT22;7352;50.866;4.366;2023-06-26T06:40:28;21.20;99.90
14531;DHT22;7352;50.866;4.366;2023-06-26T06:46:07;21.10;99.90
14531;DHT22;7352;50.866;4.366;2023-06-26T06:49:00;21.20;99.90
14531;DHT22;7352;50.866;4.366;2023-06-26T06:51:27;21.20;99.90
14531;DHT22;7352;50.866;4.366;2023-06-26T06:53:56;21.40;99.90
14531;DHT22;7352;50.866;4.366;2023-06-26T06:56:23;21.50;99.90
14531;DHT22;7352;50.866;4.366;2023-06-26T06:58:51;21.50;99.90
14531;DHT22;7352;50.866;4.366;2023-06-26T07:01:18;21.50;99.90
14531;DHT22;7352;50.866;4.366;2023-06-26T07:03:45;21.60;99.90
14531;DHT22;7352;50.866;4.366;2023-06-26T07:06:11;21.70;99.90
14531;DHT22;7352;50.866;4.366;2023-06-26T07:08:39;21.80;99.90
14531;DHT22;7352;50.866;4.366;2023-06-26T07:11:22;21.90;99.90
14531;DHT22;7352;50.866;4.366;2023-06-26T07:13:49;21.70;99.90
14531;DHT22;7352;50.866;4.366;2023-06-26T07:16:15;21.70;99.90
14531;DHT22;7352;50.866;4.366;2023-06-26T07:18:43;21.70;99.90
14531;DHT22;7352;50.866;4.366;2023-06-26T07:21:10;21.80;99.90
14531;DHT22;7352;50.866;4.366;2023-06-26T07:23:37;21.90;99.90
14531;DHT22;7352;50.866;4.366;2023-06-26T07:26:04;21.90;99.90
14531;DHT22;7352;50.866;4.366;2023-06-26T07:28:33;21.90;99.90
14531;DHT22;7352;50.866;4.366;2023-06-26T07:31:06;22.10;99.90
14531;DHT22;7352;50.866;4.366;2023-06-26T07:33:33;22.20;99.90
14531;DHT22;7352;50.866;4.366;2023-06-26T07:36:00;22.10;99.90
14531;DHT22;7352;50.866;4.366;2023-06-26T07:38:26;22.10;99.90
14531;DHT22;7352;50.866;4.366;2023-06-26T07:40:53;22.00;99.90
14531;DHT22;7352;50.866;4.366;2023-06-26T07:43:20;22.10;99.90
14531;DHT22;7352;50.866;4.366;2023-06-26T07:45:49;22.20;99.90
14531;DHT22;7352;50.866;4.366;2023-06-26T07:48:18;22.10;99.90
14531;DHT22;7352;50.866;4.366;2023-06-26T07:53:15;22.20;99.90
14531;DHT22;7352;50.866;4.366;2023-06-26T07:55:43;22.20;99.90
14531;DHT22;7352;50.866;4.366;2023-06-26T07:58:10;22.40;99.90
14531;DHT22;7352;50.866;4.366;2023-06-26T08:00:37;22.50;99.90
14531;DHT22;7352;50.866;4.366;2023-06-26T08:03:05;22.50;99.90
14531;DHT22;7352;50.866;4.366;2023-06-26T08:08:02;22.30;99.90
14531;DHT22;7352;50.866;4.366;2023-06-26T08:10:29;22.20;99.90
14531;DHT22;7352;50.866;4.366;2023-06-26T08:12:56;22.30;99.90
14531;DHT22;7352;50.866;4.366;2023-06-26T08:15:24;22.20;99.90
14531;DHT22;7352;50.866;4.366;2023-06-26T08:17:50;22.10;99.90
14531;DHT22;7352;50.866;4.366;2023-06-26T08:20:19;22.30;99.90
14531;DHT22;7352;50.866;4.366;2023-06-26T08:22:48;22.50;99.90
14531;DHT22;7352;50.866;4.366;2023-06-26T08:25:16;22.80;99.90
14531;DHT22;7352;50.866;4.366;2023-06-26T08:27:43;22.80;99.90
14531;DHT22;7352;50.866;4.366;2023-06-26T08:30:10;22.70;99.90
14531;DHT22;7352;50.866;4.366;2023-06-26T08:32:37;22.80;99.90
14531;DHT22;7352;50.866;4.366;2023-06-26T08:35:06;22.80;99.90
14531;DHT22;7352;50.866;4.366;2023-06-26T08:40:43;22.80;99.90
14531;DHT22;7352;50.866;4.366;2023-06-26T08:43:10;23.00;99.80
14531;DHT22;7352;50.866;4.366;2023-06-26T08:45:37;23.10;99.20
14531;DHT22;7352;50.866;4.366;2023-06-26T08:48:04;23.00;99.60
14531;DHT22;7352;50.866;4.366;2023-06-26T08:50:34;22.90;99.30
14531;DHT22;7352;50.866;4.366;2023-06-26T08:53:03;23.00;97.40
14531;DHT22;7352;50.866;4.366;2023-06-26T08:55:33;23.10;96.70
14531;DHT22;7352;50.866;4.366;2023-06-26T08:58:04;23.20;96.90
14531;DHT22;7352;50.866;4.366;2023-06-26T09:00:31;23.20;96.10
14531;DHT22;7352;50.866;4.366;2023-06-26T09:02:58;23.20;96.10
14531;DHT22;7352;50.866;4.366;2023-06-26T09:05:25;23.20;96.50
14531;DHT22;7352;50.866;4.366;2023-06-26T09:07:53;23.10;95.60
14531;DHT22;7352;50.866;4.366;2023-06-26T09:10:21;23.10;95.20
14531;DHT22;7352;50.866;4.366;2023-06-26T09:12:47;23.10;95.20
14531;DHT22;7352;50.866;4.366;2023-06-26T09:15:16;23.10;94.70
14531;DHT22;7352;50.866;4.366;2023-06-26T09:17:45;23.20;93.30
14531;DHT22;7352;50.866;4.366;2023-06-26T09:20:12;23.20;92.70
14531;DHT22;7352;50.866;4.366;2023-06-26T09:22:41;23.10;92.60
14531;DHT22;7352;50.866;4.366;2023-06-26T09:25:08;23.30;94.70
14531;DHT22;7352;50.866;4.366;2023-06-26T09:27:36;23.50;93.60
14531;DHT22;7352;50.866;4.366;2023-06-26T09:30:03;23.60;92.90
14531;DHT22;7352;50.866;4.366;2023-06-26T09:32:36;23.50;93.50
14531;DHT22;7352;50.866;4.366;2023-06-26T09:35:20;23.70;93.60
14531;DHT22;7352;50.866;4.366;2023-06-26T09:37:47;23.90;92.70
14531;DHT22;7352;50.866;4.366;2023-06-26T09:40:14;23.90;92.40
14531;DHT22;7352;50.866;4.366;2023-06-26T09:42:42;23.90;92.20
14531;DHT22;7352;50.866;4.366;2023-06-26T09:45:12;23.90;92.20
14531;DHT22;7352;50.866;4.366;2023-06-26T09:47:46;24.00;91.90
14531;DHT22;7352;50.866;4.366;2023-06-26T09:50:22;24.10;91.60
14531;DHT22;7352;50.866;4.366;2023-06-26T09:52:51;24.10;91.20
14531;DHT22;7352;50.866;4.366;2023-06-26T09:55:19;24.20;91.20
14531;DHT22;7352;50.866;4.366;2023-06-26T09:57:47;24.20;91.70
14531;DHT22;7352;50.866;4.366;2023-06-26T10:00:14;24.20;91.30
14531;DHT22;7352;50.866;4.366;2023-06-26T10:02:41;24.30;91.30
14531;DHT22;7352;50.866;4.366;2023-06-26T10:05:09;24.30;90.70
14531;DHT22;7352;50.866;4.366;2023-06-26T10:07:36;24.20;90.20
14531;DHT22;7352;50.866;4.366;2023-06-26T10:10:03;24.20;90.00
14531;DHT22;7352;50.866;4.366;2023-06-26T10:12:31;24.00;88.70
14531;DHT22;7352;50.866;4.366;2023-06-26T10:14:59;23.70;90.00
14531;DHT22;7352;50.866;4.366;2023-06-26T10:17:28;23.80;89.10
14531;DHT22;7352;50.866;4.366;2023-06-26T10:19:55;23.90;88.90
14531;DHT22;7352;50.866;4.366;2023-06-26T10:22:25;23.90;87.90
14531;DHT22;7352;50.866;4.366;2023-06-26T10:24:53;23.80;89.20
14531;DHT22;7352;50.866;4.366;2023-06-26T10:27:22;23.60;89.90
14531;DHT22;7352;50.866;4.366;2023-06-26T10:29:53;23.70;89.90
14531;DHT22;7352;50.866;4.366;2023-06-26T10:32:22;23.80;89.40
14531;DHT22;7352;50.866;4.366;2023-06-26T10:34:49;23.80;88.30
14531;DHT22;7352;50.866;4.366;2023-06-26T10:37:17;23.80;88.90
14531;DHT22;7352;50.866;4.366;2023-06-26T10:39:48;23.90;89.50
14531;DHT22;7352;50.866;4.366;2023-06-26T10:42:16;23.80;88.20
14531;DHT22;7352;50.866;4.366;2023-06-26T10:44:43;23.90;86.30
14531;DHT22;7352;50.866;4.366;2023-06-26T10:47:10;24.20;86.20
14531;DHT22;7352;50.866;4.366;2023-06-26T10:49:37;24.40;83.90
14531;DHT22;7352;50.866;4.366;2023-06-26T10:52:05;24.50;81.90
14531;DHT22;7352;50.866;4.366;2023-06-26T10:54:34;24.60;82.20
14531;DHT22;7352;50.866;4.366;2023-06-26T10:57:03;24.60;81.00
14531;DHT22;7352;50.866;4.366;2023-06-26T10:59:31;24.80;81.10
14531;DHT22;7352;50.866;4.366;2023-06-26T11:01:59;24.90;80.70
14531;DHT22;7352;50.866;4.366;2023-06-26T11:04:35;25.00;80.80
14531;DHT22;7352;50.866;4.366;2023-06-26T11:07:17;25.20;80.60
14531;DHT22;7352;50.866;4.366;2023-06-26T11:09:55;25.20;82.00
14531;DHT22;7352;50.866;4.366;2023-06-26T11:12:39;25.30;80.70
14531;DHT22;7352;50.866;4.366;2023-06-26T11:15:07;25.30;81.50
14531;DHT22;7352;50.866;4.366;2023-06-26T11:17:35;25.30;81.70
14531;DHT22;7352;50.866;4.366;2023-06-26T11:20:12;25.50;81.30
14531;DHT22;7352;50.866;4.366;2023-06-26T11:22:40;25.40;82.10
14531;DHT22;7352;50.866;4.366;2023-06-26T11:25:07;25.20;81.60
14531;DHT22;7352;50.866;4.366;2023-06-26T11:27:39;25.10;83.10
14531;DHT22;7352;50.866;4.366;2023-06-26T11:30:06;25.00;80.80
14531;DHT22;7352;50.866;4.366;2023-06-26T11:32:33;25.10;81.90
14531;DHT22;7352;50.866;4.366;2023-06-26T11:35:02;25.30;82.20
14531;DHT22;7352;50.866;4.366;2023-06-26T11:37:30;25.30;79.20
14531;DHT22;7352;50.866;4.366;2023-06-26T11:39:59;25.30;79.40
14531;DHT22;7352;50.866;4.366;2023-06-26T11:42:26;25.60;77.50
14531;DHT22;7352;50.866;4.366;2023-06-26T11:44:54;25.70;75.00
14531;DHT22;7352;50.866;4.366;2023-06-26T11:47:26;25.80;76.00
14531;DHT22;7352;50.866;4.366;2023-06-26T11:49:55;26.00;75.00
14531;DHT22;7352;50.866;4.366;2023-06-26T11:52:21;25.70;76.00
14531;DHT22;7352;50.866;4.366;2023-06-26T11:54:48;25.90;76.30
14531;DHT22;7352;50.866;4.366;2023-06-26T11:57:15;25.70;76.40
14531;DHT22;7352;50.866;4.366;2023-06-26T11:59:42;25.70;77.30
14531;DHT22;7352;50.866;4.366;2023-06-26T12:02:12;25.70;77.80
14531;DHT22;7352;50.866;4.366;2023-06-26T12:04:41;25.70;74.60
14531;DHT22;7352;50.866;4.366;2023-06-26T12:07:08;25.80;74.70
14531;DHT22;7352;50.866;4.366;2023-06-26T12:09:37;25.80;75.10
14531;DHT22;7352;50.866;4.366;2023-06-26T12:12:06;25.80;76.50
14531;DHT22;7352;50.866;4.366;2023-06-26T12:14:36;25.90;72.80
14531;DHT22;7352;50.866;4.366;2023-06-26T12:17:08;25.70;72.30
14531;DHT22;7352;50.866;4.366;2023-06-26T12:19:37;25.70;72.90
14531;DHT22;7352;50.866;4.366;2023-06-26T12:22:07;25.70;74.40
14531;DHT22;7352;50.866;4.366;2023-06-26T12:24:35;26.20;75.00
14531;DHT22;7352;50.866;4.366;2023-06-26T12:27:02;26.70;72.30
14531;DHT22;7352;50.866;4.366;2023-06-26T12:29:35;26.80;71.80
14531;DHT22;7352;50.866;4.366;2023-06-26T12:32:03;26.80;69.00
14531;DHT22;7352;50.866;4.366;2023-06-26T12:34:31;26.70;69.10
14531;DHT22;7352;50.866;4.366;2023-06-26T12:37:01;26.50;68.60
14531;DHT22;7352;50.866;4.366;2023-06-26T12:39:29;26.60;69.60
14531;DHT22;7352;50.866;4.366;2023-06-26T12:41:57;26.40;69.80
14531;DHT22;7352;50.866;4.366;2023-06-26T12:44:25;26.10;70.90
14531;DHT22;7352;50.866;4.366;2023-06-26T12:46:53;26.20;70.90
14531;DHT22;7352;50.866;4.366;2023-06-26T12:51:51;26.00;69.30
14531;DHT22;7352;50.866;4.366;2023-06-26T12:54:19;25.90;71.10
14531;DHT22;7352;50.866;4.366;2023-06-26T12:56:46;25.80;70.00
14531;DHT22;7352;50.866;4.366;2023-06-26T12:59:13;26.00;70.70
14531;DHT22;7352;50.866;4.366;2023-06-26T13:01:39;26.10;70.10
14531;DHT22;7352;50.866;4.366;2023-06-26T13:04:06;26.20;69.00
14531;DHT22;7352;50.866;4.366;2023-06-26T13:06:34;26.30;70.70
14531;DHT22;7352;50.866;4.366;2023-06-26T13:09:00;26.40;69.80
14531;DHT22;7352;50.866;4.366;2023-06-26T13:11:33;26.50;70.90
14531;DHT22;7352;50.866;4.366;2023-06-26T13:14:00;26.70;70.00
14531;DHT22;7352;50.866;4.366;2023-06-26T13:16:27;26.70;69.60
14531;DHT22;7352;50.866;4.366;2023-06-26T13:18:54;26.40;69.60
14531;DHT22;7352;50.866;4.366;2023-06-26T13:21:21;26.10;69.70
14531;DHT22;7352;50.866;4.366;2023-06-26T13:23:48;25.70;70.90
14531;DHT22;7352;50.866;4.366;2023-06-26T13:26:15;25.70;71.00
14531;DHT22;7352;50.866;4.366;2023-06-26T13:28:43;25.70;71.20
14531;DHT22;7352;50.866;4.366;2023-06-26T13:31:10;26.20;70.60
14531;DHT22;7352;50.866;4.366;2023-06-26T13:33:37;26.10;69.90
14531;DHT22;7352;50.866;4.366;2023-06-26T13:36:04;26.00;69.90
14531;DHT22;7352;50.866;4.366;2023-06-26T13:38:33;25.80;70.60
14531;DHT22;7352;50.866;4.366;2023-06-26T13:41:00;25.80;71.40
14531;DHT22;7352;50.866;4.366;2023-06-26T13:43:27;26.00;71.40
14531;DHT22;7352;50.866;4.366;2023-06-26T13:45:55;26.10;70.50
14531;DHT22;7352;50.866;4.366;2023-06-26T13:48:22;26.10;71.10
14531;DHT22;7352;50.866;4.366;2023-06-26T13:57:17;26.30;70.40
14531;DHT22;7352;50.866;4.366;2023-06-26T14:00:02;26.60;68.10
14531;DHT22;7352;50.866;4.366;2023-06-26T14:02:56;27.00;64.60
14531;DHT22;7352;50.866;4.366;2023-06-26T14:05:28;27.20;64.10
14531;DHT22;7352;50.866;4.366;2023-06-26T14:07:55;27.30;62.80
14531;DHT22;7352;50.866;4.366;2023-06-26T14:10:22;27.20;64.50
14531;DHT22;7352;50.866;4.366;2023-06-26T14:12:48;27.30;66.80
14531;DHT22;7352;50.866;4.366;2023-06-26T14:15:16;27.50;67.50
14531;DHT22;7352;50.866;4.366;2023-06-26T14:17:42;27.70;65.80
14531;DHT22;7352;50.866;4.366;2023-06-26T14:20:11;27.40;64.60
14531;DHT22;7352;50.866;4.366;2023-06-26T14:22:38;27.20;67.30
14531;DHT22;7352;50.866;4.366;2023-06-26T14:25:06;27.30;65.30
14531;DHT22;7352;50.866;4.366;2023-06-26T14:27:33;27.10;66.20
14531;DHT22;7352;50.866;4.366;2023-06-26T14:30:00;27.30;64.80
14531;DHT22;7352;50.866;4.366;2023-06-26T14:32:28;27.20;64.90
14531;DHT22;7352;50.866;4.366;2023-06-26T14:34:55;27.40;65.30
14531;DHT22;7352;50.866;4.366;2023-06-26T14:37:29;27.50;65.70
14531;DHT22;7352;50.866;4.366;2023-06-26T14:39:56;27.80;62.90
14531;DHT22;7352;50.866;4.366;2023-06-26T14:42:23;27.70;63.60
14531;DHT22;7352;50.866;4.366;2023-06-26T14:44:49;27.60;62.10
14531;DHT22;7352;50.866;4.366;2023-06-26T14:47:16;27.50;63.80
14531;DHT22;7352;50.866;4.366;2023-06-26T14:49:43;27.50;62.50
14531;DHT22;7352;50.866;4.366;2023-06-26T14:52:10;27.40;63.30
14531;DHT22;7352;50.866;4.366;2023-06-26T14:54:38;27.40;63.60
14531;DHT22;7352;50.866;4.366;2023-06-26T14:57:05;27.40;63.90
14531;DHT22;7352;50.866;4.366;2023-06-26T14:59:33;27.60;63.80
14531;DHT22;7352;50.866;4.366;2023-06-26T15:02:00;27.70;64.20
14531;DHT22;7352;50.866;4.366;2023-06-26T15:04:27;27.70;64.30
14531;DHT22;7352;50.866;4.366;2023-06-26T15:06:56;27.60;64.90
14531;DHT22;7352;50.866;4.366;2023-06-26T15:09:23;27.60;65.50
14531;DHT22;7352;50.866;4.366;2023-06-26T15:11:51;27.30;65.90
14531;DHT22;7352;50.866;4.366;2023-06-26T15:14:18;27.30;66.20
14531;DHT22;7352;50.866;4.366;2023-06-26T15:16:45;26.90;67.40
14531;DHT22;7352;50.866;4.366;2023-06-26T15:19:11;27.00;68.70
14531;DHT22;7352;50.866;4.366;2023-06-26T15:21:44;27.00;69.00
14531;DHT22;7352;50.866;4.366;2023-06-26T15:24:11;27.00;67.80
14531;DHT22;7352;50.866;4.366;2023-06-26T15:26:38;26.70;67.10
14531;DHT22;7352;50.866;4.366;2023-06-26T15:29:08;26.70;68.10
14531;DHT22;7352;50.866;4.366;2023-06-26T15:31:37;26.50;67.10
14531;DHT22;7352;50.866;4.366;2023-06-26T15:34:04;26.40;68.60
14531;DHT22;7352;50.866;4.366;2023-06-26T15:36:31;26.50;67.70
14531;DHT22;7352;50.866;4.366;2023-06-26T15:39:00;26.30;67.80
14531;DHT22;7352;50.866;4.366;2023-06-26T15:41:27;26.60;66.80
14531;DHT22;7352;50.866;4.366;2023-06-26T15:43:54;26.90;67.70
14531;DHT22;7352;50.866;4.366;2023-06-26T15:46:22;27.40;66.50
14531;DHT22;7352;50.866;4.366;2023-06-26T15:48:52;27.60;65.30
14531;DHT22;7352;50.866;4.366;2023-06-26T15:51:19;27.70;65.00
14531;DHT22;7352;50.866;4.366;2023-06-26T15:53:46;27.60;63.80
14531;DHT22;7352;50.866;4.366;2023-06-26T15:56:13;27.40;61.00
14531;DHT22;7352;50.866;4.366;2023-06-26T15:58:41;27.40;61.80
14531;DHT22;7352;50.866;4.366;2023-06-26T16:01:10;27.20;61.90
14531;DHT22;7352;50.866;4.366;2023-06-26T16:03:38;27.30;63.10
14531;DHT22;7352;50.866;4.366;2023-06-26T16:06:05;27.30;63.80
14531;DHT22;7352;50.866;4.366;2023-06-26T16:08:34;27.20;64.10
14531;DHT22;7352;50.866;4.366;2023-06-26T16:11:01;26.90;64.80
14531;DHT22;7352;50.866;4.366;2023-06-26T16:13:28;26.60;63.80
14531;DHT22;7352;50.866;4.366;2023-06-26T16:15:55;26.30;64.60
14531;DHT22;7352;50.866;4.366;2023-06-26T16:18:24;26.40;64.90
14531;DHT22;7352;50.866;4.366;2023-06-26T16:23:35;26.20;65.30
14531;DHT22;7352;50.866;4.366;2023-06-26T16:26:02;26.20;65.30
14531;DHT22;7352;50.866;4.366;2023-06-26T16:28:29;26.10;64.20
14531;DHT22;7352;50.866;4.366;2023-06-26T16:30:55;25.90;62.70
14531;DHT22;7352;50.866;4.366;2023-06-26T16:33:24;25.90;62.40
14531;DHT22;7352;50.866;4.366;2023-06-26T16:35:52;25.80;62.00
14531;DHT22;7352;50.866;4.366;2023-06-26T16:38:24;25.90;63.60
14531;DHT22;7352;50.866;4.366;2023-06-26T16:40:59;26.10;66.00
14531;DHT22;7352;50.866;4.366;2023-06-26T16:43:26;26.30;67.40
14531;DHT22;7352;50.866;4.366;2023-06-26T16:45:53;26.20;67.30
14531;DHT22;7352;50.866;4.366;2023-06-26T16:48:20;26.10;67.70
14531;DHT22;7352;50.866;4.366;2023-06-26T16:50:47;25.90;67.70
14531;DHT22;7352;50.866;4.366;2023-06-26T16:53:18;25.80;68.00
14531;DHT22;7352;50.866;4.366;2023-06-26T16:55:47;25.50;68.90
14531;DHT22;7352;50.866;4.366;2023-06-26T16:58:16;25.40;69.10
14531;DHT22;7352;50.866;4.366;2023-06-26T17:00:44;25.40;69.50
14531;DHT22;7352;50.866;4.366;2023-06-26T17:03:11;25.40;68.50
14531;DHT22;7352;50.866;4.366;2023-06-26T17:05:38;25.40;68.10
14531;DHT22;7352;50.866;4.366;2023-06-26T17:08:05;25.40;67.40
14531;DHT22;7352;50.866;4.366;2023-06-26T17:10:34;25.40;68.70
14531;DHT22;7352;50.866;4.366;2023-06-26T17:13:01;25.50;68.20
14531;DHT22;7352;50.866;4.366;2023-06-26T17:15:31;25.40;70.20
14531;DHT22;7352;50.866;4.366;2023-06-26T17:17:57;25.10;72.30
14531;DHT22;7352;50.866;4.366;2023-06-26T17:20:25;25.20;72.70
14531;DHT22;7352;50.866;4.366;2023-06-26T17:22:52;25.10;73.60
14531;DHT22;7352;50.866;4.366;2023-06-26T17:25:19;25.10;73.90
14531;DHT22;7352;50.866;4.366;2023-06-26T17:27:46;25.20;74.00
14531;DHT22;7352;50.866;4.366;2023-06-26T17:30:13;25.20;73.40
14531;DHT22;7352;50.866;4.366;2023-06-26T17:32:43;24.90;73.30
14531;DHT22;7352;50.866;4.366;2023-06-26T17:35:10;24.80;73.70
14531;DHT22;7352;50.866;4.366;2023-06-26T17:37:37;24.70;73.90
14531;DHT22;7352;50.866;4.366;2023-06-26T17:40:07;24.50;74.40
14531;DHT22;7352;50.866;4.366;2023-06-26T17:42:34;24.30;75.40
14531;DHT22;7352;50.866;4.366;2023-06-26T17:45:06;24.20;75.30
14531;DHT22;7352;50.866;4.366;2023-06-26T17:47:46;24.20;75.50
14531;DHT22;7352;50.866;4.366;2023-06-26T17:50:13;24.30;75.90
14531;DHT22;7352;50.866;4.366;2023-06-26T17:52:40;24.10;76.50
14531;DHT22;7352;50.866;4.366;2023-06-26T17:55:07;24.10;76.60
14531;DHT22;7352;50.866;4.366;2023-06-26T17:57:36;24.00;77.20
14531;DHT22;7352;50.866;4.366;2023-06-26T18:00:04;24.00;77.20
14531;DHT22;7352;50.866;4.366;2023-06-26T18:02:31;24.00;78.00
14531;DHT22;7352;50.866;4.366;2023-06-26T18:05:01;24.00;77.80
14531;DHT22;7352;50.866;4.366;2023-06-26T18:07:28;23.90;77.90
14531;DHT22;7352;50.866;4.366;2023-06-26T18:09:55;23.80;78.10
14531;DHT22;7352;50.866;4.366;2023-06-26T18:12:22;23.80;78.50